This is the latest recevied weather packets stored in our database for station/object KA9CBS. If no packets are shown the sender has not sent any weather packets the latest 10 day(s).
| Time | Temp. | Humidity | Pressure | Rain* | Wind** | Luminosity | Snow |
|---|---|---|---|---|---|---|---|
| 1787540598 | 18.33° C | 87% | 1019.3 hPa | 0 mm | - | 0 W/m² | - |
| 1787540296 | 18.33° C | 87% | 1019.4 hPa | 0 mm | - | 0 W/m² | - |
| 1787539992 | 18.33° C | 85% | 1019.3 hPa | 0 mm | - | 0 W/m² | - |
| 1787539687 | 18.89° C | 85% | 1019.2 hPa | 0 mm | - | 0 W/m² | - |
| 1787539386 | 18.89° C | 84% | 1019.3 hPa | 0 mm | - | 0 W/m² | - |
| 1787539082 | 19.44° C | 83% | 1019.2 hPa | 0 mm | - | 0 W/m² | - |
| 1787538779 | 19.44° C | 82% | 1019.1 hPa | 0 mm | - | 0 W/m² | - |
| 1787538469 | 20° C | 80% | 1019.3 hPa | 0 mm | - | 0 W/m² | - |
| 1787538164 | 20° C | 79% | 1018.9 hPa | 0 mm | - | 0 W/m² | - |
| 1787537861 | 20° C | 80% | 1019.3 hPa | 0 mm | - | 0 W/m² | - |
| 1787537558 | 20° C | 81% | 1019 hPa | 0 mm | - | 0 W/m² | - |
| 1787537252 | 20° C | 80% | 1019 hPa | 0 mm | - | 0 W/m² | - |
| 1787536952 | 20° C | 82% | 1018.8 hPa | 0 mm | - | 0 W/m² | - |
| 1787536651 | 20° C | 81% | 1018.9 hPa | 0 mm | - | 0 W/m² | - |
| 1787536348 | 20° C | 80% | 1018.7 hPa | 0 mm | - | 0 W/m² | - |
| 1787536043 | 20° C | 80% | 1018.8 hPa | 0 mm | - | 0 W/m² | - |
| 1787535738 | 20° C | 80% | 1019 hPa | 0 mm | - | 0 W/m² | - |
| 1787535433 | 20.56° C | 78% | 1018.8 hPa | 0 mm | - | 0 W/m² | - |
| 1787535128 | 20° C | 80% | 1018.4 hPa | 0 mm | - | 0 W/m² | - |
| 1787534828 | 20° C | 80% | 1018.7 hPa | 0 mm | - | 0 W/m² | - |
| 1787534522 | 20° C | 81% | 1018.8 hPa | 0 mm | - | 0 W/m² | - |
| 1787534221 | 20.56° C | 80% | 1018.6 hPa | 0 mm | - | 0 W/m² | - |
| 1787533917 | 21.11° C | 78% | 1018.4 hPa | 0 mm | - | 0 W/m² | - |
| 1787533613 | 21.67° C | 76% | 1018.4 hPa | 0 mm | - | 0 W/m² | - |
| 1787533310 | 22.22° C | 73% | 1018.5 hPa | 0 mm | - | 0 W/m² | - |
* Rain latest hour (hover to see other rain measurements)
** Current wind speed in m/s (hover to see current wind gust speed)